• Join FlightAware (Why Join?)
  • Login
  • US Flag 
12:10AM EST


 

Airport Tracker/Info


-or-


 

Live Flight TrackerFlight Track Log ✈ RPA4907 ✈ 04-Sep-2013 ✈ KBWI - KEWR

Flight Track Log - Related Links

Times and Time Zones

All times are in EDT time to prevent confusion due to time zone crossing. See the RPA4907 flight status page for this flight to view local times or setup timezone preferences in your user account.

Time Position Orientation Groundspeed Altitude Reporting Facility
EDT Latitude Longitude Course Direction KTS MPH feet Rate Location/Type
03:14PM 39.1833 -76.7500 43° Northeast 198 228 2,700  Level Potomac TRACON
03:15PM 39.1667 -76.8333 256° West 224 258 5,700 2,040 Climbing Potomac TRACON
03:16PM 39.1885 -76.1653 46° Northeast  Level FlightAware Approximate
03:16PM 39.1167 -76.7833 142° Southeast 262 302 7,100  Level Potomac TRACON
03:17PM 39.2657 -76.0791 46° Northeast  Level FlightAware Approximate
03:17PM 39.1167 -76.6833 90° East 299 344 7,000  Level Potomac TRACON
03:18PM 39.3394 -75.9874 42° Northeast  Level FlightAware Approximate
03:18PM 39.1167 -76.5833 90° East 292 336 8,100  Level Potomac TRACON
03:19PM 39.4152 -75.8985 43° Northeast  Level FlightAware Approximate
03:19PM 39.1167 -76.4667 90° East 302 348 9,700  Level Potomac TRACON
03:20PM 39.1667 -76.4000 46° Northeast 295 339 11,000 660 Climbing Potomac TRACON
03:21PM 39.2333 -76.3167 44° Northeast 330 380 11,000  Level Potomac TRACON
03:22PM 39.2833 -76.2167 57° Northeast 338 389 11,000  Level Potomac TRACON
03:23PM 39.3833 -76.0667 49° Northeast 336 387 11,000  Level Philadelphia TRACON
03:24PM 39.4500 -75.9667 49° Northeast 334 384 11,000  Level Philadelphia TRACON
03:25PM 39.5000 -75.8833 52° Northeast 336 387 11,000  Level Philadelphia TRACON
03:26PM 39.5500 -75.8000 52° Northeast 336 387 11,000  Level Philadelphia TRACON
03:27PM 39.6333 -75.6833 47° Northeast 341 392 11,000  Level Philadelphia TRACON
03:28PM 39.6833 -75.6000 52° Northeast 347 399 11,000  Level Philadelphia TRACON
03:29PM 39.7167 -75.4833 70° East 350 403 11,000 -240 Level Philadelphia TRACON
03:30PM 39.7500 -75.3667 70° East 352 405 10,600 -480 Descending Philadelphia TRACON
03:31PM 39.7833 -75.2333 72° East 346 398 10,100 -300 Descending Philadelphia TRACON
03:32PM 39.8167 -75.1000 72° East 337 388 10,000 -60 Descending Philadelphia TRACON
03:33PM 39.8500 -74.9833 70° East 337 388 10,000 -420 Level Philadelphia TRACON
03:34PM 39.9167 -74.9167 37° Northeast 286 329 9,200 -900 Descending Philadelphia TRACON
03:35PM 39.9500 -74.8500 57° Northeast 281 323 8,400 -1,080 Descending Philadelphia TRACON
03:36PM 40.0167 -74.7667 44° Northeast 282 325 7,200 -660 Descending New York TRACON
03:37PM 40.0833 -74.7333 21° North 261 300 7,000 -120 Descending New York TRACON
03:38PM 40.1500 -74.7167 11° North 257 296 7,000  Level New York TRACON
03:39PM 40.2167 -74.7000 11° North 262 302 7,000 -420 Level New York TRACON
03:40PM 40.3000 -74.6833 North 262 302 6,200 -720 Descending New York TRACON
03:41PM 40.3667 -74.6667 11° North 257 296 5,500 -600 Descending New York TRACON
03:42PM 40.4333 -74.6500 11° North 252 290 5,000 -300 Descending New York TRACON
03:43PM 40.5167 -74.6333 North 259 298 5,000  Level New York TRACON
03:44PM 40.5833 -74.6000 21° North 264 304 5,000  Level New York TRACON
03:45PM 40.6500 -74.5833 11° North 249 287 5,000  Level New York TRACON
03:46PM 40.7167 -74.5667 11° North 257 296 5,000  Level New York TRACON
03:47PM 40.7833 -74.5000 37° Northeast 266 306 5,000  Level New York TRACON
03:48PM 40.8333 -74.4333 45° Northeast 269 310 5,000  Level New York TRACON
03:49PM 40.8833 -74.3833 37° Northeast 267 307 5,000 -360 Level New York TRACON
03:50PM 40.9333 -74.3000 52° Northeast 272 313 4,300 -540 Descending New York TRACON
03:51PM 40.9167 -74.2167 105° East 244 281 4,000 -180 Descending New York TRACON
03:52PM 40.9000 -74.1500 108° East 195 224 4,000 -420 Level New York TRACON
03:53PM 40.8667 -74.0833 123° Southeast 200 230 3,200 -660 Descending New York TRACON
03:54PM 40.8333 -74.0667 159° South 179 206 2,700 -600 Descending New York TRACON
03:55PM 40.7833 -74.1000 207° Southwest 180 207 2,000 -840 Descending New York TRACON
03:56PM 40.7500 -74.1333 217° Southwest 155 178 1,100 -780 Descending New York TRACON
03:58PM 40.7167 -74.1500 201° Southwest 134 154 400 -660 Descending New York TRACON